createdAt,value
2022-09-16T00:00:22.581Z,11.39
2022-09-16T00:02:52.479Z,11.45
2022-09-16T00:05:19.165Z,11.35
2022-09-16T00:07:46.197Z,11.28
2022-09-16T00:10:13.419Z,11.38
2022-09-16T00:12:41.002Z,11.34
2022-09-16T00:15:08.483Z,11.25
2022-09-16T00:17:35.097Z,11.14
2022-09-16T00:20:01.860Z,11.16
2022-09-16T00:22:29.100Z,11.18
2022-09-16T00:24:55.721Z,11.11
2022-09-16T00:27:22.651Z,11.18
2022-09-16T00:29:49.355Z,11.12
2022-09-16T00:32:16.037Z,11.10
2022-09-16T00:34:42.700Z,11.01
2022-09-16T00:37:09.953Z,10.97
2022-09-16T00:39:37.702Z,11.06
2022-09-16T00:42:05.338Z,10.97
2022-09-16T00:44:54.650Z,11.01
2022-09-16T00:47:33.481Z,11.06
2022-09-16T00:50:10.087Z,11.05
2022-09-16T00:52:38.218Z,10.96
2022-09-16T00:55:09.190Z,10.89
2022-09-16T00:57:36.936Z,10.98
2022-09-16T01:00:07.747Z,10.89
2022-09-16T01:02:34.845Z,10.82
2022-09-16T01:05:07.014Z,10.77
2022-09-16T01:07:36.923Z,10.72
2022-09-16T01:10:04.309Z,10.67
2022-09-16T01:12:33.552Z,10.79
2022-09-16T01:15:01.542Z,10.72
2022-09-16T01:17:50.526Z,10.73
2022-09-16T01:20:50.909Z,10.60
2022-09-16T01:24:00.895Z,10.56
2022-09-16T01:27:05.009Z,10.54
2022-09-16T01:29:34.569Z,10.62
2022-09-16T01:32:21.702Z,10.54
2022-09-16T01:35:09.325Z,10.47
2022-09-16T01:37:35.970Z,10.46
2022-09-16T01:40:29.121Z,10.45
2022-09-16T01:43:01.570Z,10.41
2022-09-16T01:45:41.327Z,10.44
2022-09-16T01:48:19.916Z,10.53
2022-09-16T01:50:52.984Z,10.52
2022-09-16T01:53:44.434Z,10.46
2022-09-16T01:56:20.960Z,10.60
2022-09-16T01:59:17.822Z,10.60
2022-09-16T02:02:16.533Z,10.54
2022-09-16T02:04:50.130Z,10.50
2022-09-16T02:07:21.711Z,10.53
2022-09-16T02:10:25.210Z,10.44
2022-09-16T02:12:55.404Z,10.44
2022-09-16T02:15:25.338Z,10.56
2022-09-16T02:18:01.777Z,10.53
2022-09-16T02:20:31.846Z,10.48
2022-09-16T02:23:07.463Z,10.43
2022-09-16T02:25:38.433Z,10.44
2022-09-16T02:28:13.120Z,10.38
2022-09-16T02:30:46.185Z,10.34
2022-09-16T02:33:14.364Z,10.34
2022-09-16T02:35:41.589Z,10.36
2022-09-16T02:38:17.052Z,10.31
2022-09-16T02:40:52.357Z,10.23
2022-09-16T02:43:19.261Z,10.20
2022-09-16T02:45:57.992Z,10.22
2022-09-16T02:48:50.324Z,10.19
2022-09-16T02:51:41.911Z,10.14
2022-09-16T02:54:30.394Z,10.12
2022-09-16T02:56:57.524Z,10.05
2022-09-16T02:59:25.422Z,9.98
2022-09-16T03:01:52.255Z,10.05
2022-09-16T03:04:20.481Z,10.04
2022-09-16T03:06:48.260Z,10.10
2022-09-16T03:09:18.294Z,10.07
2022-09-16T03:12:09.893Z,10.05
2022-09-16T03:14:49.432Z,10.04
2022-09-16T03:17:34.009Z,10.01
2022-09-16T03:20:12.122Z,10.04
2022-09-16T03:22:58.068Z,10.02
2022-09-16T03:25:36.970Z,10.02
2022-09-16T03:28:16.065Z,10.19
2022-09-16T03:31:05.184Z,10.13
2022-09-16T03:34:06.717Z,10.17
2022-09-16T03:36:39.264Z,10.20
2022-09-16T03:39:06.440Z,10.16
2022-09-16T03:41:34.787Z,10.14
2022-09-16T03:44:03.985Z,10.11
2022-09-16T03:46:31.757Z,10.17
2022-09-16T03:48:59.349Z,10.16
2022-09-16T03:51:26.412Z,10.27
2022-09-16T03:53:54.222Z,10.29
2022-09-16T03:56:23.045Z,10.37
2022-09-16T03:58:50.184Z,10.49
2022-09-16T04:01:16.979Z,10.45
2022-09-16T04:03:43.601Z,10.48
2022-09-16T04:06:10.208Z,10.47
2022-09-16T04:08:37.320Z,10.61
2022-09-16T04:11:05.593Z,10.54
2022-09-16T04:13:33.882Z,10.51
2022-09-16T04:16:01.420Z,10.41
2022-09-16T04:18:30.213Z,10.34
2022-09-16T04:21:01.798Z,10.38
2022-09-16T04:23:29.612Z,10.34
2022-09-16T04:25:57.960Z,10.35
2022-09-16T04:28:25.044Z,10.51
2022-09-16T04:30:52.272Z,10.40
2022-09-16T04:33:18.969Z,10.31
2022-09-16T04:35:45.594Z,10.44
2022-09-16T04:38:12.282Z,10.31
2022-09-16T04:40:41.704Z,10.32
2022-09-16T04:43:08.305Z,10.29
2022-09-16T04:45:35.051Z,10.32
2022-09-16T04:48:01.799Z,10.20
2022-09-16T04:50:28.425Z,10.25
2022-09-16T04:52:55.049Z,10.21
2022-09-16T04:55:24.509Z,10.35
2022-09-16T04:57:52.112Z,10.30
2022-09-16T05:00:19.053Z,10.33
2022-09-16T05:02:46.161Z,10.35
2022-09-16T05:05:12.965Z,10.37
2022-09-16T05:07:39.553Z,10.31
2022-09-16T05:10:06.754Z,10.31
2022-09-16T05:12:33.583Z,10.31
2022-09-16T05:15:00.184Z,10.44
2022-09-16T05:17:50.022Z,10.37
2022-09-16T05:20:17.887Z,10.34
2022-09-16T05:22:44.823Z,10.39
2022-09-16T05:25:12.030Z,10.29
2022-09-16T05:27:38.688Z,10.40
2022-09-16T05:30:05.758Z,10.43
2022-09-16T05:32:33.145Z,10.39
2022-09-16T05:34:59.982Z,10.35
2022-09-16T05:37:26.625Z,10.51
2022-09-16T05:39:54.133Z,10.43
2022-09-16T05:42:20.820Z,10.57
2022-09-16T05:44:47.520Z,10.64
2022-09-16T05:47:14.809Z,10.66
2022-09-16T05:49:41.444Z,10.69
2022-09-16T05:52:08.052Z,10.83
2022-09-16T05:54:34.706Z,10.95
2022-09-16T05:57:06.012Z,11.03
2022-09-16T05:59:33.432Z,11.20
2022-09-16T06:02:00.264Z,11.25
2022-09-16T06:04:27.034Z,11.25
2022-09-16T06:06:53.672Z,11.12
2022-09-16T06:09:23.137Z,11.40
2022-09-16T06:11:54.466Z,11.44
2022-09-16T06:14:23.470Z,11.65
2022-09-16T06:16:50.272Z,11.73
2022-09-16T06:19:18.904Z,11.90
2022-09-16T06:21:46.257Z,11.94
2022-09-16T06:24:14.352Z,12.09
2022-09-16T06:26:42.634Z,12.27
2022-09-16T06:29:10.147Z,12.06
2022-09-16T06:31:38.542Z,12.13
2022-09-16T06:34:07.196Z,12.34
2022-09-16T06:36:42.686Z,12.25
2022-09-16T06:39:16.092Z,12.05
2022-09-16T06:41:43.462Z,12.14
2022-09-16T06:44:10.419Z,12.27
2022-09-16T06:46:37.154Z,12.65
2022-09-16T06:49:06.062Z,12.72
2022-09-16T06:51:36.043Z,12.98
2022-09-16T06:54:05.476Z,13.11
2022-09-16T06:56:34.189Z,13.07
2022-09-16T06:59:00.912Z,13.13
2022-09-16T07:01:29.655Z,13.18
2022-09-16T07:03:58.575Z,12.99
2022-09-16T07:09:16.473Z,13.72
2022-09-16T07:11:43.084Z,13.36
2022-09-16T07:14:09.992Z,13.09
2022-09-16T07:16:36.893Z,12.95
2022-09-16T07:19:04.613Z,13.29
2022-09-16T07:21:31.472Z,13.19
2022-09-16T07:24:00.211Z,13.44
2022-09-16T07:26:32.354Z,13.83
2022-09-16T07:28:59.858Z,13.79
2022-09-16T07:31:29.454Z,14.07
2022-09-16T07:34:03.556Z,13.85
2022-09-16T07:36:34.273Z,13.83
2022-09-16T07:39:00.973Z,13.75
2022-09-16T07:41:29.942Z,14.10
2022-09-16T07:43:59.115Z,14.65
2022-09-16T07:46:28.179Z,14.58
2022-09-16T07:48:55.569Z,14.24
2022-09-16T07:51:24.940Z,13.84
2022-09-16T07:54:02.574Z,14.02
2022-09-16T07:56:32.663Z,14.21
2022-09-16T07:58:59.324Z,14.48
2022-09-16T08:01:27.000Z,14.60
2022-09-16T08:03:55.641Z,14.37
2022-09-16T08:06:25.751Z,14.47
2022-09-16T08:08:54.428Z,14.36
2022-09-16T08:11:21.847Z,14.37
2022-09-16T08:13:49.291Z,14.21
2022-09-16T08:16:22.014Z,14.15
2022-09-16T08:18:51.713Z,14.29
2022-09-16T08:21:21.342Z,14.37
2022-09-16T08:23:48.729Z,14.65
2022-09-16T08:26:17.310Z,14.84
2022-09-16T08:28:51.015Z,14.71
2022-09-16T08:31:31.621Z,14.85
2022-09-16T08:33:58.293Z,14.81
2022-09-16T08:36:26.545Z,14.93
2022-09-16T08:38:56.405Z,15.11
2022-09-16T08:41:35.468Z,15.40
2022-09-16T08:44:52.446Z,15.13
2022-09-16T08:47:28.685Z,16.00
2022-09-16T08:49:58.811Z,16.40
2022-09-16T08:52:33.293Z,16.64
2022-09-16T08:55:12.388Z,16.28
2022-09-16T08:57:46.893Z,15.60
2022-09-16T09:00:16.978Z,15.91
2022-09-16T09:02:51.339Z,15.99
2022-09-16T09:05:45.211Z,16.06
2022-09-16T09:08:36.233Z,16.36
2022-09-16T09:11:17.382Z,16.17
2022-09-16T09:13:59.208Z,15.82
2022-09-16T09:16:38.134Z,15.80
2022-09-16T09:19:40.563Z,15.56
2022-09-16T09:22:28.016Z,15.95
2022-09-16T09:25:16.266Z,16.52
2022-09-16T09:28:01.032Z,16.25
2022-09-16T09:30:28.765Z,16.56
2022-09-16T09:33:45.912Z,17.35
2022-09-16T09:36:23.107Z,17.25
2022-09-16T09:38:54.152Z,17.36
2022-09-16T09:41:39.038Z,17.67
2022-09-16T09:44:40.899Z,18.02
2022-09-16T09:47:21.587Z,17.96
2022-09-16T09:49:54.418Z,18.19
2022-09-16T09:52:23.676Z,18.10
2022-09-16T09:54:52.130Z,17.61
2022-09-16T09:57:18.844Z,17.32
2022-09-16T10:00:12.167Z,17.45
2022-09-16T10:02:48.847Z,17.92
2022-09-16T10:05:23.842Z,17.48
2022-09-16T10:07:53.417Z,17.44
2022-09-16T10:10:24.346Z,16.80
2022-09-16T10:12:51.620Z,16.59
2022-09-16T10:15:23.845Z,17.43
2022-09-16T10:17:52.740Z,17.45
2022-09-16T10:20:31.793Z,16.94
2022-09-16T10:23:07.108Z,16.97
2022-09-16T10:25:34.669Z,16.75
2022-09-16T10:28:07.097Z,16.64
2022-09-16T10:30:48.357Z,17.01
2022-09-16T10:33:20.005Z,17.49
2022-09-16T10:36:06.698Z,17.06
2022-09-16T10:38:41.881Z,16.91
2022-09-16T10:41:15.276Z,16.97
2022-09-16T10:43:58.772Z,16.33
2022-09-16T10:46:26.095Z,15.89
2022-09-16T10:48:57.538Z,16.12
2022-09-16T10:51:29.897Z,16.81
2022-09-16T10:54:01.405Z,16.62
2022-09-16T10:56:48.657Z,16.31
2022-09-16T10:59:15.707Z,15.91
2022-09-16T11:02:04.764Z,15.60
2022-09-16T11:04:57.616Z,16.40
2022-09-16T11:07:37.183Z,17.12
2022-09-16T11:10:18.398Z,17.46
2022-09-16T11:13:00.257Z,17.77
2022-09-16T11:15:54.870Z,17.87
2022-09-16T11:18:27.480Z,18.05
2022-09-16T11:20:59.726Z,17.83
2022-09-16T11:23:39.552Z,18.21
2022-09-16T11:26:30.458Z,17.55
2022-09-16T11:29:27.551Z,17.54
2022-09-16T11:32:13.724Z,16.99
2022-09-16T11:34:40.481Z,16.86
2022-09-16T11:37:29.041Z,17.37
2022-09-16T11:40:20.533Z,17.21
2022-09-16T11:43:15.815Z,17.53
2022-09-16T11:45:54.373Z,17.75
2022-09-16T11:48:54.290Z,18.19
2022-09-16T11:51:50.273Z,17.95
2022-09-16T11:54:43.430Z,17.21
2022-09-16T11:57:19.129Z,17.46
2022-09-16T11:59:55.773Z,17.65
2022-09-16T12:02:31.232Z,17.75
2022-09-16T12:05:26.827Z,17.68
2022-09-16T12:08:22.965Z,17.66
2022-09-16T12:10:55.400Z,17.33
2022-09-16T12:13:28.663Z,18.02
2022-09-16T12:16:13.745Z,18.35
2022-09-16T12:18:45.544Z,18.50
2022-09-16T12:21:16.462Z,17.97
2022-09-16T12:23:49.396Z,17.85
2022-09-16T12:26:31.097Z,17.66
2022-09-16T12:29:09.423Z,17.63
2022-09-16T12:31:46.917Z,17.79
2022-09-16T12:34:27.736Z,18.09
2022-09-16T12:37:52.040Z,17.61
2022-09-16T12:40:52.846Z,17.21
2022-09-16T12:43:25.038Z,16.78
2022-09-16T12:46:10.110Z,16.80
2022-09-16T12:48:36.673Z,17.24
2022-09-16T12:51:33.891Z,18.01
2022-09-16T12:54:08.997Z,18.59
2022-09-16T12:57:05.868Z,18.65
2022-09-16T13:00:00.670Z,18.61
2022-09-16T13:02:34.781Z,18.86
2022-09-16T13:05:12.769Z,18.94
2022-09-16T13:07:40.260Z,19.18
2022-09-16T13:10:55.037Z,19.33
2022-09-16T13:13:50.705Z,19.50
2022-09-16T13:16:31.893Z,19.56
2022-09-16T13:19:31.213Z,19.92
2022-09-16T13:22:02.282Z,19.24
2022-09-16T13:24:36.754Z,19.26
2022-09-16T13:27:29.255Z,19.38
2022-09-16T13:30:14.958Z,19.04
2022-09-16T13:32:50.840Z,19.14
2022-09-16T13:35:22.698Z,18.94
2022-09-16T13:37:57.745Z,18.99
2022-09-16T13:40:29.982Z,19.00
2022-09-16T13:43:09.172Z,18.74
2022-09-16T13:45:44.699Z,18.17
2022-09-16T13:48:25.202Z,17.61
2022-09-16T13:50:57.527Z,17.37
2022-09-16T13:53:29.285Z,17.59
2022-09-16T13:56:03.722Z,18.10
2022-09-16T13:58:37.945Z,18.78
2022-09-16T14:01:13.649Z,19.00
2022-09-16T14:03:54.211Z,18.77
2022-09-16T14:06:57.764Z,18.44
2022-09-16T14:09:47.169Z,18.59
2022-09-16T14:12:24.099Z,18.32
2022-09-16T14:14:51.133Z,18.26
2022-09-16T14:17:28.626Z,18.42
2022-09-16T14:20:00.526Z,18.05
2022-09-16T14:22:28.131Z,18.26
2022-09-16T14:25:06.826Z,18.35
2022-09-16T14:27:43.787Z,17.91
2022-09-16T14:30:17.295Z,18.01
2022-09-16T14:32:46.077Z,18.19
2022-09-16T14:35:20.880Z,18.06
2022-09-16T14:38:00.664Z,18.13
2022-09-16T14:40:28.623Z,18.07
2022-09-16T14:43:03.432Z,18.14
2022-09-16T14:45:32.354Z,18.07
2022-09-16T14:48:02.425Z,18.28
2022-09-16T14:50:33.368Z,18.14
2022-09-16T14:53:02.581Z,17.95
2022-09-16T14:55:31.384Z,18.11
2022-09-16T14:57:59.284Z,17.89
2022-09-16T15:00:38.537Z,17.91
2022-09-16T15:03:24.825Z,17.74
2022-09-16T15:05:54.411Z,17.54
2022-09-16T15:08:26.964Z,17.57
2022-09-16T15:10:59.268Z,17.64
2022-09-16T15:13:30.389Z,17.68
2022-09-16T15:16:02.710Z,17.41
2022-09-16T15:18:36.133Z,17.31
2022-09-16T15:21:02.686Z,17.14
2022-09-16T15:23:30.340Z,16.95
2022-09-16T15:26:02.966Z,16.87
2022-09-16T15:28:29.802Z,17.16
2022-09-16T15:30:58.320Z,17.22
2022-09-16T15:33:40.805Z,17.24
2022-09-16T15:36:34.566Z,17.26
2022-09-16T15:39:01.231Z,17.19
2022-09-16T15:41:28.113Z,17.11
2022-09-16T15:43:54.732Z,17.04
2022-09-16T15:46:23.919Z,17.09
2022-09-16T15:49:01.920Z,16.87
2022-09-16T15:51:31.357Z,16.89
2022-09-16T15:54:14.414Z,16.68
2022-09-16T15:56:50.037Z,16.59
2022-09-16T15:59:55.020Z,16.46
2022-09-16T16:02:35.092Z,16.20
2022-09-16T16:05:10.738Z,16.13
2022-09-16T16:07:52.487Z,15.97
2022-09-16T16:10:24.704Z,16.02
2022-09-16T16:12:54.204Z,15.86
2022-09-16T16:15:28.696Z,15.97
2022-09-16T16:17:59.803Z,15.90
2022-09-16T16:20:27.350Z,15.99
2022-09-16T16:22:54.495Z,15.89
2022-09-16T16:25:21.249Z,16.06
2022-09-16T16:27:48.602Z,15.93
2022-09-16T16:30:15.240Z,16.09
2022-09-16T16:32:42.188Z,16.05
2022-09-16T16:35:09.167Z,16.06
2022-09-16T16:37:52.236Z,15.91
2022-09-16T16:40:18.937Z,15.96
2022-09-16T16:42:45.525Z,15.91
2022-09-16T16:45:13.699Z,15.78
2022-09-16T16:47:41.832Z,15.78
2022-09-16T16:50:09.181Z,15.71
2022-09-16T16:52:35.979Z,15.66
2022-09-16T16:55:02.619Z,15.48
2022-09-16T16:57:29.365Z,15.36
2022-09-16T16:59:56.504Z,15.19
2022-09-16T17:02:23.337Z,15.06
2022-09-16T17:04:50.007Z,14.97
2022-09-16T17:07:32.592Z,14.83
2022-09-16T17:09:59.302Z,14.65
2022-09-16T17:12:26.693Z,14.55
2022-09-16T17:14:53.547Z,14.49
2022-09-16T17:17:20.201Z,14.53
2022-09-16T17:19:46.789Z,14.32
2022-09-16T17:22:13.552Z,14.21
2022-09-16T17:24:40.288Z,13.99
2022-09-16T17:27:06.880Z,14.03
2022-09-16T17:29:33.447Z,14.10
2022-09-16T17:32:02.739Z,13.91
2022-09-16T17:34:30.205Z,13.81
2022-09-16T17:36:57.630Z,13.84
2022-09-16T17:39:24.257Z,13.71
2022-09-16T17:41:51.249Z,13.68
2022-09-16T17:44:18.949Z,13.62
2022-09-16T17:46:46.935Z,13.60
2022-09-16T17:49:21.815Z,13.54
2022-09-16T17:51:49.567Z,13.42
2022-09-16T17:54:16.573Z,13.39
2022-09-16T17:56:44.040Z,13.41
2022-09-16T17:59:12.106Z,13.28
2022-09-16T18:01:39.547Z,13.24
2022-09-16T18:04:06.227Z,13.17
2022-09-16T18:06:35.904Z,13.33
2022-09-16T18:09:05.342Z,13.24
2022-09-16T18:11:31.942Z,13.25
2022-09-16T18:14:01.085Z,13.26
2022-09-16T18:16:29.964Z,13.29
2022-09-16T18:18:59.174Z,13.18
2022-09-16T18:21:26.885Z,13.02
2022-09-16T18:24:02.513Z,13.03
2022-09-16T18:26:30.338Z,12.94
2022-09-16T18:29:09.663Z,13.07
2022-09-16T18:31:38.057Z,12.96
2022-09-16T18:34:05.210Z,12.98
2022-09-16T18:36:35.224Z,12.89
2022-09-16T18:39:01.988Z,12.84
2022-09-16T18:41:34.638Z,12.79
2022-09-16T18:44:05.239Z,12.86
2022-09-16T18:46:33.707Z,12.82
2022-09-16T18:49:00.864Z,12.96
2022-09-16T18:51:27.508Z,12.95
2022-09-16T18:53:57.761Z,13.15
2022-09-16T18:56:26.092Z,13.04
2022-09-16T18:59:20.450Z,13.21
2022-09-16T19:01:48.880Z,13.11
2022-09-16T19:04:18.116Z,13.21
2022-09-16T19:06:46.992Z,13.19
2022-09-16T19:09:16.053Z,13.11
2022-09-16T19:11:43.414Z,13.18
2022-09-16T19:14:13.897Z,13.17
2022-09-16T19:16:45.004Z,13.21
2022-09-16T19:19:14.084Z,13.22
2022-09-16T19:21:42.503Z,13.24
2022-09-16T19:24:17.416Z,13.26
2022-09-16T19:26:45.266Z,13.11
2022-09-16T19:29:13.685Z,12.99
2022-09-16T19:31:42.153Z,12.86
2022-09-16T19:34:09.179Z,12.80
2022-09-16T19:36:37.143Z,12.75
2022-09-16T19:39:05.329Z,12.70
2022-09-16T19:41:34.402Z,12.59
2022-09-16T19:44:03.770Z,12.37
2022-09-16T19:46:35.425Z,12.21
2022-09-16T19:49:02.453Z,11.96
2022-09-16T19:51:29.196Z,11.76
2022-09-16T19:53:56.037Z,11.61
2022-09-16T19:56:27.404Z,11.38
2022-09-16T19:58:54.597Z,11.26
2022-09-16T20:01:26.417Z,11.18
2022-09-16T20:03:54.345Z,10.94
2022-09-16T20:06:25.658Z,10.73
2022-09-16T20:08:55.697Z,10.50
2022-09-16T20:11:24.796Z,10.27
2022-09-16T20:13:53.607Z,10.29
2022-09-16T20:16:21.940Z,10.14
2022-09-16T20:18:49.115Z,10.14
2022-09-16T20:21:18.345Z,10.04
2022-09-16T20:23:45.766Z,10.13
2022-09-16T20:26:15.134Z,10.10
2022-09-16T20:28:43.345Z,10.07
2022-09-16T20:31:13.235Z,10.16
2022-09-16T20:33:40.777Z,10.16
2022-09-16T20:36:10.569Z,10.09
2022-09-16T20:38:38.709Z,10.01
2022-09-16T20:41:06.404Z,9.94
2022-09-16T20:43:34.183Z,9.95
2022-09-16T20:46:09.448Z,9.87
2022-09-16T20:48:36.292Z,9.97
2022-09-16T20:51:09.040Z,9.96
2022-09-16T20:53:37.424Z,9.87
2022-09-16T20:56:10.004Z,9.87
2022-09-16T20:58:37.393Z,9.86
2022-09-16T21:01:17.927Z,9.84
2022-09-16T21:03:45.481Z,9.82
2022-09-16T21:06:17.375Z,9.99
2022-09-16T21:08:44.462Z,9.78
2022-09-16T21:11:15.840Z,9.97
2022-09-16T21:13:45.257Z,9.97
2022-09-16T21:16:15.746Z,9.86
2022-09-16T21:18:42.998Z,9.94
2022-09-16T21:21:18.037Z,9.98
2022-09-16T21:23:49.375Z,10.08
2022-09-16T21:26:21.310Z,10.11
2022-09-16T21:28:53.641Z,10.07
2022-09-16T21:31:20.368Z,10.16
2022-09-16T21:33:54.248Z,10.21
2022-09-16T21:36:23.710Z,10.06
2022-09-16T21:38:51.493Z,10.16
2022-09-16T21:41:21.389Z,10.09
2022-09-16T21:43:55.743Z,10.27
2022-09-16T21:46:28.600Z,10.26
2022-09-16T21:48:58.422Z,10.18
2022-09-16T21:51:25.144Z,10.17
2022-09-16T21:53:52.210Z,10.24
2022-09-16T21:56:21.434Z,10.27
2022-09-16T21:58:49.953Z,10.33
2022-09-16T22:01:18.451Z,10.38
2022-09-16T22:03:47.631Z,10.37
2022-09-16T22:06:18.550Z,10.36
2022-09-16T22:08:49.093Z,10.37
2022-09-16T22:11:18.384Z,10.40
2022-09-16T22:13:45.621Z,10.39
2022-09-16T22:16:14.612Z,10.40
2022-09-16T22:18:41.270Z,10.36
2022-09-16T22:21:10.592Z,10.38
2022-09-16T22:23:39.564Z,10.37
2022-09-16T22:26:07.215Z,10.44
2022-09-16T22:28:35.257Z,10.48
2022-09-16T22:31:18.544Z,10.48
2022-09-16T22:33:47.047Z,10.52
2022-09-16T22:36:16.651Z,10.52
2022-09-16T22:38:52.069Z,10.60
2022-09-16T22:41:20.062Z,10.53
2022-09-16T22:43:48.663Z,10.51
2022-09-16T22:46:18.453Z,10.44
2022-09-16T22:48:45.816Z,10.52
2022-09-16T22:51:13.758Z,10.50
2022-09-16T22:53:42.893Z,10.44
2022-09-16T22:56:19.536Z,10.50
2022-09-16T22:58:47.021Z,10.55
2022-09-16T23:01:16.906Z,10.56
2022-09-16T23:03:45.054Z,10.51
2022-09-16T23:06:14.185Z,10.54
2022-09-16T23:08:43.363Z,10.54
2022-09-16T23:11:13.302Z,10.60
2022-09-16T23:13:41.975Z,10.60
2022-09-16T23:16:20.380Z,10.61
2022-09-16T23:18:48.293Z,10.60
2022-09-16T23:21:20.818Z,10.59
2022-09-16T23:23:50.352Z,10.65
2022-09-16T23:26:20.296Z,10.61
2022-09-16T23:28:51.222Z,10.64
2022-09-16T23:31:19.966Z,10.60
2022-09-16T23:33:46.615Z,10.67
2022-09-16T23:36:15.545Z,10.65
2022-09-16T23:38:43.056Z,10.68
2022-09-16T23:41:13.399Z,10.79
2022-09-16T23:43:44.446Z,10.70
2022-09-16T23:46:14.375Z,10.66
2022-09-16T23:48:43.185Z,10.65
2022-09-16T23:51:10.837Z,10.73
2022-09-16T23:53:38.633Z,10.72
2022-09-16T23:56:11.006Z,10.68
2022-09-16T23:58:38.590Z,10.76
